Time;durP1;ratioP1;P1;durP2;ratioP2;P2;SDS_P1;SDS_P2;PMS_P1;PMS_P2;Temp;Humidity;BMP_temperature;BMP_pressure;BME280_temperature;BME280_humidity;BME280_pressure;Samples;Min_cycle;Max_cycle;Signal;HPM_P1;HPM_P2
2022/03/24 00:02:06;;;;;;;36.10;23.95;;;;;;;11.66;43.01;102860.38;5032636;28;20051;-55
2022/03/24 00:04:34;;;;;;;40.63;24.80;;;;;;;11.66;43.93;102861.22;5045065;28;20423;-52
2022/03/24 00:07:02;;;;;;;36.60;25.95;;;;;;;11.64;43.74;102859.75;5033497;28;20447;-55
2022/03/24 00:09:29;;;;;;;40.60;25.75;;;;;;;11.65;43.42;102858.72;5032507;28;20496;-54
2022/03/24 00:11:57;;;;;;;36.10;25.10;;;;;;;11.66;43.43;102861.22;5044743;28;20049;-55
2022/03/24 00:14:25;;;;;;;32.00;24.75;;;;;;;11.65;43.90;102854.09;5048871;28;20048;-51
2022/03/24 00:16:52;;;;;;;34.83;25.30;;;;;;;11.64;42.78;102852.44;5033873;28;20045;-53
2022/03/24 00:19:22;;;;;;;39.65;25.73;;;;;;;11.63;43.05;102856.22;5034790;28;20124;-52
2022/03/24 00:21:50;;;;;;;32.50;25.42;;;;;;;11.60;43.59;102853.09;5033855;28;20423;-54
2022/03/24 00:24:19;;;;;;;36.50;26.08;;;;;;;11.54;43.33;102854.81;5040660;28;20080;-50
2022/03/24 00:26:47;;;;;;;35.38;25.25;;;;;;;11.49;44.08;102857.38;5053604;28;20051;-51
2022/03/24 00:29:14;;;;;;;35.38;25.65;;;;;;;11.41;43.28;102847.59;5052488;28;20555;-51
2022/03/24 00:31:42;;;;;;;38.75;26.83;;;;;;;11.30;43.90;102846.44;5041456;28;20055;-50
2022/03/24 00:34:10;;;;;;;37.38;24.52;;;;;;;11.23;44.35;102845.66;5034701;28;20488;-54
2022/03/24 00:36:38;;;;;;;32.40;23.58;;;;;;;11.25;44.84;102848.16;5032988;28;20049;-55
2022/03/24 00:39:06;;;;;;;35.35;24.10;;;;;;;11.24;44.37;102846.50;5000087;28;20072;-51
2022/03/24 00:41:35;;;;;;;35.60;25.13;;;;;;;11.20;44.64;102845.25;5044494;28;20041;-54
2022/03/24 00:44:03;;;;;;;34.50;24.83;;;;;;;11.17;45.39;102842.97;5039968;28;20056;-53
2022/03/24 00:46:31;;;;;;;34.65;25.63;;;;;;;11.08;44.80;102842.41;5052184;28;20048;-55
2022/03/24 00:49:02;;;;;;;37.80;25.00;;;;;;;10.96;45.75;102839.56;5053067;28;20491;-53
2022/03/24 00:51:29;;;;;;;37.15;24.88;;;;;;;10.94;45.50;102836.22;5039811;28;20045;-52
2022/03/24 00:53:57;;;;;;;35.45;23.90;;;;;;;11.01;45.54;102844.34;5033075;28;20033;-54
2022/03/24 00:56:24;;;;;;;36.55;25.70;;;;;;;11.07;45.34;102835.28;5033305;28;20049;-53
2022/03/24 00:58:52;;;;;;;33.72;25.00;;;;;;;11.09;45.36;102836.75;5031896;28;20526;-54
2022/03/24 01:01:20;;;;;;;32.60;22.92;;;;;;;11.12;45.18;102832.72;5033001;28;20052;-53
2022/03/24 01:03:49;;;;;;;31.42;24.15;;;;;;;11.16;44.33;102835.84;5042811;28;20041;-55
2022/03/24 01:06:18;;;;;;;36.03;25.15;;;;;;;11.13;44.75;102828.94;5051707;28;20064;-56
2022/03/24 01:08:46;;;;;;;31.15;23.25;;;;;;;11.13;44.42;102833.56;5033026;28;20045;-53
2022/03/24 01:11:13;;;;;;;33.78;24.92;;;;;;;11.14;44.58;102832.53;5044816;28;20131;-55
2022/03/24 01:13:41;;;;;;;30.02;23.80;;;;;;;11.11;44.35;102828.31;5051698;28;20120;-53
2022/03/24 01:16:12;;;;;;;34.08;23.55;;;;;;;11.01;44.50;102830.72;5053713;28;20396;-54
2022/03/24 01:18:40;;;;;;;32.80;24.20;;;;;;;10.95;44.39;102829.72;5040657;28;20045;-51
2022/03/24 01:21:08;;;;;;;38.00;25.67;;;;;;;10.86;44.52;102825.59;5048729;28;20037;-49
2022/03/24 01:23:36;;;;;;;33.08;23.42;;;;;;;10.70;44.65;102828.84;5033081;28;20038;-56
2022/03/24 01:26:09;;;;;;;34.47;23.08;;;;;;;10.63;45.64;102827.00;5051248;28;20495;-55
2022/03/24 01:28:41;;;;;;;39.05;24.35;;;;;;;10.65;45.06;102830.34;5051581;28;20392;-54
2022/03/24 01:31:10;;;;;;;36.53;24.80;;;;;;;10.68;45.17;102820.03;5050577;28;20037;-57
2022/03/24 01:33:39;;;;;;;35.72;23.48;;;;;;;10.68;45.16;102814.59;5035944;28;20088;-55
2022/03/24 01:36:08;;;;;;;29.67;23.67;;;;;;;10.70;44.89;102820.66;5036604;28;20049;-53
2022/03/24 01:38:38;;;;;;;32.10;23.13;;;;;;;10.66;45.14;102823.00;5021301;28;20492;-52
2022/03/24 01:41:07;;;;;;;32.50;23.23;;;;;;;10.61;45.05;102820.94;5045276;28;20049;-55
2022/03/24 01:43:36;;;;;;;36.95;24.80;;;;;;;10.59;45.41;102814.84;5035195;28;20392;-55
2022/03/24 01:46:04;;;;;;;32.67;23.50;;;;;;;10.54;45.48;102814.69;5054258;28;20466;-56
2022/03/24 01:48:32;;;;;;;34.45;24.60;;;;;;;10.54;45.32;102803.78;5055335;28;20048;-54
2022/03/24 01:50:59;;;;;;;34.92;24.52;;;;;;;10.51;45.48;102809.69;5051618;28;20038;-51
2022/03/24 01:53:27;;;;;;;33.58;24.70;;;;;;;10.41;45.41;102804.69;5035029;28;20518;-55
2022/03/24 01:55:56;;;;;;;30.45;24.10;;;;;;;10.34;45.54;102803.91;5035325;28;20037;-56
2022/03/24 01:58:25;;;;;;;39.22;25.02;;;;;;;10.29;45.56;102798.25;5041208;28;20090;-54
2022/03/24 02:00:52;;;;;;;31.55;24.13;;;;;;;10.21;45.93;102809.38;5038192;28;20535;-56
2022/03/24 02:03:22;;;;;;;33.90;24.08;;;;;;;10.24;45.99;102798.84;5054816;28;20049;-56
2022/03/24 02:05:50;;;;;;;31.38;23.40;;;;;;;10.33;45.97;102795.94;5038166;28;20047;-54
2022/03/24 02:08:18;;;;;;;32.95;23.42;;;;;;;10.36;45.84;102798.22;5038301;28;20102;-51
2022/03/24 02:10:46;;;;;;;33.38;22.25;;;;;;;10.40;45.59;102791.28;5024831;28;20042;-53
2022/03/24 02:13:13;;;;;;;32.72;22.83;;;;;;;10.42;45.22;102794.63;5018453;28;20076;-54
2022/03/24 02:15:43;;;;;;;30.85;23.38;;;;;;;10.34;45.80;102797.59;5034967;28;20055;-52
2022/03/24 02:18:13;;;;;;;34.20;23.05;;;;;;;10.32;45.94;102805.13;5050031;28;20075;-54
2022/03/24 02:20:42;;;;;;;31.75;22.95;;;;;;;10.32;46.24;102794.25;5019108;28;20136;-54
2022/03/24 02:23:12;;;;;;;34.90;23.30;;;;;;;10.33;45.95;102791.31;5043857;28;20091;-53
2022/03/24 02:25:40;;;;;;;34.75;23.10;;;;;;;10.29;45.87;102787.34;5055841;28;20449;-53
2022/03/24 02:28:08;;;;;;;38.28;24.90;;;;;;;10.23;45.70;102791.75;5053822;28;20052;-56
2022/03/24 02:30:35;;;;;;;37.83;24.40;;;;;;;10.14;45.86;102792.22;5055762;28;20124;-56
2022/03/24 02:33:03;;;;;;;28.45;22.35;;;;;;;10.03;46.43;102780.94;5054417;28;20045;-56
2022/03/24 02:35:31;;;;;;;31.33;23.50;;;;;;;10.01;46.52;102787.66;5053455;28;20052;-55
2022/03/24 02:37:58;;;;;;;34.33;23.40;;;;;;;10.05;46.58;102785.34;5051450;28;20087;-54
2022/03/24 02:40:26;;;;;;;31.73;22.95;;;;;;;10.05;46.80;102786.16;5041633;28;20041;-54
2022/03/24 02:42:53;;;;;;;37.00;24.38;;;;;;;9.96;46.52;102788.31;5055349;28;20415;-53
2022/03/24 02:45:21;;;;;;;32.53;24.13;;;;;;;9.83;46.62;102793.78;5054128;28;20056;-54
2022/03/24 02:47:49;;;;;;;32.92;24.15;;;;;;;9.75;46.71;102794.03;5053677;28;20067;-53
2022/03/24 02:50:17;;;;;;;31.70;23.50;;;;;;;9.78;47.18;102797.16;5046231;28;20049;-53
2022/03/24 02:52:45;;;;;;;29.98;23.25;;;;;;;9.87;47.10;102792.31;5055305;28;20439;-55
2022/03/24 02:55:12;;;;;;;30.50;22.88;;;;;;;9.96;46.46;102801.09;5051373;28;20043;-53
2022/03/24 02:57:41;;;;;;;29.60;22.92;;;;;;;9.98;46.58;102798.97;5036397;28;20042;-54
2022/03/24 03:00:09;;;;;;;29.58;23.02;;;;;;;9.99;46.67;102798.78;5036567;28;20443;-53
2022/03/24 03:02:37;;;;;;;31.15;23.35;;;;;;;10.01;46.63;102802.13;5034128;28;20073;-53
2022/03/24 03:05:05;;;;;;;35.92;22.80;;;;;;;10.02;46.43;102797.50;5034608;28;20049;-54
2022/03/24 03:07:33;;;;;;;29.98;23.20;;;;;;;10.02;46.51;102792.06;5036157;28;20034;-54
2022/03/24 03:10:01;;;;;;;30.15;22.75;;;;;;;9.98;46.55;102798.97;5042668;28;20041;-55
2022/03/24 03:12:28;;;;;;;31.15;23.88;;;;;;;9.90;46.57;102789.16;5055074;28;20067;-55
2022/03/24 03:14:56;;;;;;;33.30;24.25;;;;;;;9.79;46.95;102792.56;5054937;28;20059;-52
2022/03/24 03:17:24;;;;;;;33.00;23.52;;;;;;;9.69;47.32;102797.59;5048428;28;20112;-54
2022/03/24 03:19:51;;;;;;;30.75;23.02;;;;;;;9.67;47.47;102797.84;5034582;28;20538;-54
2022/03/24 03:22:19;;;;;;;30.75;22.50;;;;;;;9.72;47.46;102794.47;5033806;28;20113;-51
2022/03/24 03:24:46;;;;;;;29.92;22.52;;;;;;;9.78;47.07;102794.44;5033582;28;20044;-54
2022/03/24 03:27:15;;;;;;;32.33;23.25;;;;;;;9.79;47.37;102785.22;5035822;28;20132;-48
2022/03/24 03:29:43;;;;;;;31.60;22.42;;;;;;;9.78;47.25;102793.59;5034609;28;20048;-49
2022/03/24 03:32:12;;;;;;;35.25;24.38;;;;;;;9.73;46.92;102796.97;5050084;28;20495;-47
2022/03/24 03:34:41;;;;;;;33.22;22.77;;;;;;;9.57;47.28;102791.97;5038319;28;20056;-54
2022/03/24 03:37:10;;;;;;;33.03;22.67;;;;;;;9.46;47.72;102789.94;5034409;28;20480;-54
2022/03/24 03:39:38;;;;;;;33.38;23.08;;;;;;;9.38;48.40;102793.72;5048669;28;20041;-53
2022/03/24 03:42:07;;;;;;;30.10;22.35;;;;;;;9.33;48.09;102790.75;5053199;28;20047;-55
2022/03/24 03:44:35;;;;;;;31.40;23.70;;;;;;;9.32;48.54;102791.81;5052832;28;20056;-53
2022/03/24 03:47:03;;;;;;;31.15;23.83;;;;;;;9.32;48.25;102789.94;5034633;28;20064;-55
2022/03/24 03:49:31;;;;;;;29.30;21.90;;;;;;;9.27;48.57;102781.56;5034522;28;20484;-53
2022/03/24 03:52:19;;;;;;;35.05;23.00;;;;;;;9.20;49.01;102785.34;5034473;28;20037;-51
2022/03/24 03:54:47;;;;;;;30.27;22.60;;;;;;;9.18;48.86;102788.25;5034339;28;20052;-47
2022/03/24 03:57:15;;;;;;;29.10;22.45;;;;;;;9.17;49.08;102797.50;5034443;28;20408;-53
2022/03/24 03:59:42;;;;;;;27.83;21.85;;;;;;;9.13;48.98;102798.94;5034884;28;20147;-53
2022/03/24 04:02:11;;;;;;;31.48;22.13;;;;;;;9.07;49.33;102792.47;5032526;28;20455;-56
2022/03/24 04:04:39;;;;;;;28.58;22.25;;;;;;;9.08;49.38;102801.47;5034127;28;20095;-56
2022/03/24 04:07:07;;;;;;;30.67;22.77;;;;;;;9.12;48.90;102806.28;5032314;28;20460;-49
2022/03/24 04:09:34;;;;;;;30.27;21.75;;;;;;;9.12;48.83;102798.13;5034016;28;20046;-54
2022/03/24 04:12:02;;;;;;;31.67;22.05;;;;;;;9.06;48.90;102800.81;5052981;28;20045;-54
2022/03/24 04:14:30;;;;;;;31.23;22.35;;;;;;;9.03;48.74;102801.25;5052892;28;20502;-55
2022/03/24 04:16:58;;;;;;;29.63;22.55;;;;;;;9.01;49.23;102800.63;5033408;28;20041;-55
2022/03/24 04:19:26;;;;;;;29.75;21.60;;;;;;;9.01;49.25;102797.91;5033535;28;20052;-53
2022/03/24 04:21:54;;;;;;;31.40;22.38;;;;;;;9.01;49.55;102803.34;5033863;28;20045;-54
2022/03/24 04:24:22;;;;;;;29.08;21.65;;;;;;;9.02;49.26;102805.00;5037532;28;20041;-56
2022/03/24 04:26:50;;;;;;;31.77;22.42;;;;;;;9.04;49.04;102797.47;5050341;28;20048;-57
2022/03/24 04:29:17;;;;;;;28.95;20.85;;;;;;;9.07;49.33;102797.91;5055039;28;20041;-55
2022/03/24 04:31:45;;;;;;;27.58;21.27;;;;;;;9.11;49.27;102801.88;5039524;28;20044;-54
2022/03/24 04:34:13;;;;;;;29.92;21.88;;;;;;;9.13;49.38;102801.66;5053044;28;20086;-56
2022/03/24 04:36:41;;;;;;;30.17;22.23;;;;;;;9.06;49.00;102795.38;5050254;28;20049;-51
2022/03/24 04:39:08;;;;;;;29.25;21.23;;;;;;;8.96;49.64;102801.25;5053521;28;20049;-49
2022/03/24 04:41:36;;;;;;;29.23;21.52;;;;;;;8.92;49.67;102799.97;5052503;28;20051;-51
2022/03/24 04:44:04;;;;;;;27.42;21.33;;;;;;;8.95;49.86;102803.13;5052801;28;20041;-49
2022/03/24 04:46:32;;;;;;;30.48;21.88;;;;;;;8.99;49.99;102800.00;5039603;28;20033;-48
2022/03/24 04:49:02;;;;;;;28.50;22.23;;;;;;;8.97;50.00;102800.19;5041906;28;20041;-47
2022/03/24 04:51:29;;;;;;;30.15;22.52;;;;;;;8.90;49.90;102805.66;5053211;28;20056;-52
2022/03/24 04:53:57;;;;;;;33.28;22.25;;;;;;;8.74;49.93;102803.31;5053252;28;20060;-53
2022/03/24 04:56:25;;;;;;;31.23;22.10;;;;;;;8.60;51.00;102817.91;5044640;28;20037;-51
2022/03/24 04:58:52;;;;;;;30.52;22.17;;;;;;;8.50;50.74;102810.16;5033292;28;20046;-52
2022/03/24 05:01:20;;;;;;;32.88;21.88;;;;;;;8.53;51.16;102813.28;5040634;28;20436;-55
2022/03/24 05:03:48;;;;;;;29.83;21.95;;;;;;;8.63;50.96;102812.06;5052882;28;20124;-48
2022/03/24 05:06:16;;;;;;;28.75;22.15;;;;;;;8.69;51.02;102808.53;5049845;28;20048;-49
2022/03/24 05:08:44;;;;;;;28.83;22.83;;;;;;;8.73;50.96;102810.63;5037022;28;20132;-48
2022/03/24 05:11:12;;;;;;;29.02;22.27;;;;;;;8.78;50.12;102810.03;5037345;28;20045;-47
2022/03/24 05:13:39;;;;;;;34.15;22.80;;;;;;;8.74;50.04;102806.03;5038304;28;20144;-52
2022/03/24 05:16:07;;;;;;;28.20;21.85;;;;;;;8.64;50.69;102809.16;5040894;28;20045;-51
2022/03/24 05:18:35;;;;;;;30.85;22.35;;;;;;;8.54;50.67;102808.72;5057201;28;20048;-51
2022/03/24 05:21:04;;;;;;;32.78;23.48;;;;;;;8.49;50.79;102809.34;5055927;28;20037;-51
2022/03/24 05:23:32;;;;;;;31.77;23.23;;;;;;;8.46;51.06;102815.16;5056954;28;20103;-51
2022/03/24 05:25:59;;;;;;;32.97;22.67;;;;;;;8.45;51.09;102813.50;5054931;28;20037;-47
2022/03/24 05:28:27;;;;;;;31.70;23.58;;;;;;;8.46;51.76;102812.44;5036815;28;20064;-47
2022/03/24 05:30:55;;;;;;;30.95;22.73;;;;;;;8.51;51.86;102815.41;5035647;28;20050;-47
2022/03/24 05:33:23;;;;;;;28.17;21.23;;;;;;;8.57;51.56;102815.63;5037008;28;20049;-47
2022/03/24 05:35:51;;;;;;;33.03;22.15;;;;;;;8.62;51.02;102818.56;5036766;28;20038;-52
2022/03/24 05:38:19;;;;;;;30.73;22.73;;;;;;;8.66;51.32;102817.09;5036786;28;20080;-48
2022/03/24 05:40:47;;;;;;;34.20;22.33;;;;;;;8.64;50.79;102813.75;5037695;28;20049;-47
2022/03/24 05:43:15;;;;;;;32.97;22.88;;;;;;;8.58;51.62;102814.56;5036560;28;20041;-49
2022/03/24 05:45:42;;;;;;;30.13;22.67;;;;;;;8.52;51.18;102817.06;5045981;28;20453;-49
2022/03/24 05:48:10;;;;;;;30.75;23.38;;;;;;;8.47;51.09;102818.75;5056489;28;20041;-54
2022/03/24 05:51:04;;;;;;;34.97;23.55;;;;;;;8.40;51.81;102821.44;5040510;28;20068;-54
2022/03/24 05:53:33;;;;;;;32.85;24.40;;;;;;;8.38;51.78;102815.31;5055443;28;20045;-52
2022/03/24 05:56:00;;;;;;;33.42;24.13;;;;;;;8.34;51.56;102819.47;5056113;28;20395;-53
2022/03/24 05:58:28;;;;;;;29.42;23.30;;;;;;;8.35;51.71;102821.16;5056220;28;20045;-52
2022/03/24 06:00:55;;;;;;;33.00;23.30;;;;;;;8.39;51.53;102822.41;5056022;28;20052;-54
2022/03/24 06:03:24;;;;;;;31.70;23.63;;;;;;;8.42;51.52;102822.06;5054988;28;20048;-57
2022/03/24 06:05:51;;;;;;;35.38;24.40;;;;;;;8.34;51.90;102819.47;5039163;28;20045;-52
2022/03/24 06:08:19;;;;;;;32.22;24.13;;;;;;;8.29;52.29;102819.25;5036147;28;20465;-52
2022/03/24 06:10:48;;;;;;;36.40;24.23;;;;;;;8.30;51.53;102818.22;5036090;28;20140;-51
2022/03/24 06:13:16;;;;;;;39.45;23.98;;;;;;;8.27;52.10;102824.06;5035052;28;20132;-59
2022/03/24 06:15:45;;;;;;;34.67;24.80;;;;;;;8.25;52.61;102831.56;5054495;28;20051;-50
2022/03/24 06:18:13;;;;;;;32.28;23.27;;;;;;;8.24;52.34;102819.03;5053338;28;20049;-55
2022/03/24 06:20:41;;;;;;;35.28;23.75;;;;;;;8.22;52.78;102826.53;5055618;28;20051;-51
2022/03/24 06:23:08;;;;;;;32.85;25.13;;;;;;;8.23;52.83;102830.94;5055700;28;20044;-54
2022/03/24 06:25:39;;;;;;;34.67;24.15;;;;;;;8.19;52.54;102837.81;5039838;28;20049;-55
2022/03/24 06:28:08;;;;;;;34.08;23.55;;;;;;;8.22;52.35;102831.97;5035598;28;20056;-56
2022/03/24 06:30:35;;;;;;;36.08;24.67;;;;;;;8.24;52.45;102832.63;5036794;28;20049;-56
2022/03/24 06:33:03;;;;;;;31.73;23.75;;;;;;;8.30;53.11;102823.66;5035393;28;20107;-56
2022/03/24 06:35:30;;;;;;;36.95;25.35;;;;;;;8.39;52.55;102835.16;5053023;28;20037;-57
2022/03/24 06:37:58;;;;;;;35.75;23.45;;;;;;;8.43;52.29;102831.88;5054329;28;20403;-54
2022/03/24 06:40:27;;;;;;;33.35;23.92;;;;;;;8.51;52.04;102829.00;5039957;28;20049;-58
2022/03/24 06:42:55;;;;;;;37.55;24.10;;;;;;;8.59;52.71;102832.56;5036284;28;20069;-55
2022/03/24 06:45:22;;;;;;;33.50;24.23;;;;;;;8.65;52.16;102829.00;5035845;28;20060;-53
2022/03/24 06:47:50;;;;;;;36.60;24.23;;;;;;;8.69;52.28;102824.84;5035414;28;20042;-55
2022/03/24 06:50:18;;;;;;;38.95;25.20;;;;;;;8.74;51.36;102827.78;5035228;28;20041;-55
2022/03/24 06:52:46;;;;;;;35.42;24.88;;;;;;;8.80;52.01;102829.66;5017519;28;20404;-54
2022/03/24 06:55:14;;;;;;;33.55;23.92;;;;;;;8.84;51.93;102832.81;5041727;28;20056;-51
2022/03/24 06:57:42;;;;;;;38.08;25.02;;;;;;;8.87;51.86;102827.78;5055070;28;20451;-53
2022/03/24 07:00:13;;;;;;;33.97;23.95;;;;;;;8.90;51.57;102824.66;5053631;28;20041;-53
2022/03/24 07:02:42;;;;;;;44.28;25.05;;;;;;;8.95;51.81;102826.78;5042281;28;20052;-53
2022/03/24 07:05:13;;;;;;;39.47;23.88;;;;;;;8.99;51.10;102830.72;5048401;28;20427;-57
2022/03/24 07:07:43;;;;;;;31.30;23.90;;;;;;;9.03;51.51;102834.72;5051754;28;20124;-55
2022/03/24 07:10:11;;;;;;;33.00;23.88;;;;;;;9.06;50.84;102830.75;5053659;28;20102;-53
2022/03/24 07:12:38;;;;;;;38.65;24.50;;;;;;;9.08;50.89;102834.91;5054562;28;20479;-55
2022/03/24 07:15:12;;;;;;;32.22;23.98;;;;;;;9.12;51.45;102835.34;5034695;28;20140;-54
2022/03/24 07:17:40;;;;;;;33.97;24.75;;;;;;;9.15;51.31;102837.66;5018917;28;20037;-52
2022/03/24 07:20:08;;;;;;;34.28;24.45;;;;;;;9.17;51.20;102841.00;5034722;28;20136;-51
2022/03/24 07:22:37;;;;;;;35.22;25.13;;;;;;;9.20;51.57;102846.00;5034720;28;20598;-50
2022/03/24 07:25:06;;;;;;;37.63;23.67;;;;;;;9.23;51.78;102851.03;5048819;28;20053;-51
2022/03/24 07:27:34;;;;;;;40.95;25.17;;;;;;;9.26;51.40;102837.03;5042327;28;20049;-53
2022/03/24 07:30:03;;;;;;;37.40;25.02;;;;;;;9.29;51.88;102850.22;5033888;28;20487;-53
2022/03/24 07:32:32;;;;;;;35.92;25.33;;;;;;;9.33;51.70;102839.72;5034768;28;20045;-56
2022/03/24 07:35:00;;;;;;;48.20;26.30;;;;;;;9.35;51.45;102849.34;5049792;28;20048;-54
2022/03/24 07:37:31;;;;;;;40.08;25.60;;;;;;;9.38;51.79;102839.97;5036581;28;20515;-59
2022/03/24 07:39:59;;;;;;;40.40;23.90;;;;;;;9.43;52.40;102839.31;4736523;28;10001384;-55
2022/03/24 07:42:27;;;;;;;39.28;25.40;;;;;;;9.48;52.75;102842.25;5032133;28;20636;-53
2022/03/24 07:44:55;;;;;;;41.75;27.48;;;;;;;9.52;52.52;102843.47;5046001;28;20056;-56
2022/03/24 07:47:24;;;;;;;45.08;26.25;;;;;;;9.54;52.41;102850.38;5051270;28;20139;-58
2022/03/24 07:49:52;;;;;;;46.53;27.92;;;;;;;9.56;52.68;102853.75;5046509;28;20041;-58
2022/03/24 07:52:19;;;;;;;45.22;27.95;;;;;;;9.56;52.67;102853.75;5030419;28;20049;-59
2022/03/24 07:55:01;;;;;;;40.97;27.75;;;;;;;9.59;52.89;102849.75;5048894;28;20506;-53
2022/03/24 07:57:32;;;;;;;41.88;26.73;;;;;;;9.63;53.17;102853.75;5031182;28;20111;-56
2022/03/24 08:00:00;;;;;;;35.78;27.45;;;;;;;9.67;53.13;102852.28;5030702;28;20124;-52
2022/03/24 08:02:34;;;;;;;46.17;31.40;;;;;;;9.69;53.20;102849.31;5031137;28;20199;-54
2022/03/24 08:05:02;;;;;;;41.97;28.05;;;;;;;9.70;52.96;102851.00;5032343;28;20051;-55
2022/03/24 08:07:29;;;;;;;42.03;28.15;;;;;;;9.74;52.62;102855.81;5047652;28;20045;-58
2022/03/24 08:09:57;;;;;;;35.45;24.60;;;;;;;9.78;52.55;102857.03;5030579;28;20132;-54
2022/03/24 08:12:25;;;;;;;38.13;25.55;;;;;;;9.84;52.58;102862.69;5035806;28;20121;-56
2022/03/24 08:14:52;;;;;;;36.47;25.55;;;;;;;9.87;51.93;102859.56;5040758;28;20037;-54
2022/03/24 08:17:23;;;;;;;42.90;29.55;;;;;;;9.88;52.14;102866.66;5030528;28;20045;-53
2022/03/24 08:19:51;;;;;;;41.30;28.92;;;;;;;9.90;52.71;102867.28;5030345;28;20042;-55
2022/03/24 08:22:18;;;;;;;45.28;32.20;;;;;;;9.92;52.29;102870.66;5039152;28;20045;-55
2022/03/24 08:24:46;;;;;;;32.58;24.67;;;;;;;9.96;52.23;102871.91;5028421;28;20058;-54
2022/03/24 08:27:14;;;;;;;31.33;19.90;;;;;;;10.00;52.71;102876.69;5028997;28;20120;-54
2022/03/24 08:29:42;;;;;;;32.63;21.08;;;;;;;10.05;52.98;102875.22;5030189;28;20098;-54
2022/03/24 08:32:12;;;;;;;38.42;23.27;;;;;;;10.10;52.84;102873.53;5042391;28;20455;-54
2022/03/24 08:34:40;;;;;;;49.45;31.15;;;;;;;10.12;53.08;102876.84;5047198;28;20040;-53
2022/03/24 08:37:07;;;;;;;42.35;29.88;;;;;;;10.15;52.84;102875.59;5049777;28;20068;-55
2022/03/24 08:39:35;;;;;;;53.63;33.03;;;;;;;10.17;53.47;102879.81;5049830;28;20033;-56
2022/03/24 08:42:03;;;;;;;40.10;28.05;;;;;;;10.29;53.75;102877.25;5033462;28;20689;-56
2022/03/24 08:44:30;;;;;;;34.35;27.58;;;;;;;10.36;52.95;102879.97;5029538;28;20060;-55
2022/03/24 08:46:58;;;;;;;45.63;29.27;;;;;;;10.39;53.40;102880.38;5044065;28;20807;-55
2022/03/24 08:49:26;;;;;;;43.95;30.40;;;;;;;10.40;51.64;102887.47;5047028;28;20055;-53
2022/03/24 08:51:53;;;;;;;44.42;28.70;;;;;;;10.43;52.32;102878.88;5032053;28;20049;-55
2022/03/24 08:54:21;;;;;;;56.25;33.17;;;;;;;10.45;52.82;102886.84;5033138;28;20128;-52
2022/03/24 08:56:49;;;;;;;41.63;30.92;;;;;;;10.46;52.65;102883.06;5049722;28;20717;-54
2022/03/24 08:59:17;;;;;;;52.05;33.17;;;;;;;10.49;52.86;102887.25;5040210;28;20500;-51
2022/03/24 09:01:45;;;;;;;37.38;24.08;;;;;;;10.51;52.77;102880.53;5030271;28;20467;-55
2022/03/24 09:04:14;;;;;;;50.53;32.00;;;;;;;10.56;53.24;102878.00;5029694;28;20554;-57
2022/03/24 09:06:42;;;;;;;45.45;30.23;;;;;;;10.58;53.07;102885.94;5030225;28;20050;-54
2022/03/24 09:09:09;;;;;;;43.53;27.63;;;;;;;10.63;52.46;102889.69;5029825;28;20049;-54
2022/03/24 09:11:37;;;;;;;47.55;30.83;;;;;;;10.65;51.81;102882.16;5029517;28;20049;-54
2022/03/24 09:14:05;;;;;;;41.42;29.55;;;;;;;10.70;51.57;102888.81;5038736;28;20041;-53
2022/03/24 09:16:33;;;;;;;44.85;28.55;;;;;;;10.75;50.55;102892.56;5029964;28;20048;-56
2022/03/24 09:19:00;;;;;;;43.47;30.45;;;;;;;10.83;50.78;102883.28;5027333;28;20042;-52
2022/03/24 09:21:28;;;;;;;43.25;29.50;;;;;;;10.92;51.35;102890.16;5032003;28;20045;-51
2022/03/24 09:23:56;;;;;;;37.63;25.92;;;;;;;11.00;49.49;102891.78;5032533;28;20041;-53
2022/03/24 09:26:24;;;;;;;39.15;28.90;;;;;;;11.11;49.70;102887.50;5032623;28;20042;-54
2022/03/24 09:28:58;;;;;;;34.97;24.60;;;;;;;11.19;50.06;102887.25;5033653;28;20037;-52
2022/03/24 09:31:26;;;;;;;38.20;26.98;;;;;;;11.23;50.10;102892.06;5051011;28;20459;-53
2022/03/24 09:33:54;;;;;;;38.97;25.50;;;;;;;11.35;51.74;102883.13;5052516;28;20055;-54
2022/03/24 09:36:22;;;;;;;40.10;25.60;;;;;;;11.54;51.67;102881.28;5052475;28;20045;-54
2022/03/24 09:38:50;;;;;;;35.95;22.38;;;;;;;11.70;46.85;102873.34;5049345;28;20045;-55
2022/03/24 09:41:19;;;;;;;31.27;20.92;;;;;;;11.84;44.41;102879.53;5032656;28;20124;-53
2022/03/24 09:43:47;;;;;;;32.90;22.17;;;;;;;11.93;43.02;102883.69;5049396;28;20051;-54
2022/03/24 09:46:16;;;;;;;31.50;23.42;;;;;;;11.94;42.10;102888.06;5052074;28;20114;-53
2022/03/24 09:48:44;;;;;;;32.20;21.33;;;;;;;11.99;39.91;102887.38;5034668;28;20045;-54
2022/03/24 09:51:12;;;;;;;27.52;19.48;;;;;;;12.16;36.60;102887.63;5033720;28;20042;-51
2022/03/24 09:53:40;;;;;;;26.50;18.92;;;;;;;12.30;36.38;102883.66;5032845;28;20510;-52
2022/03/24 09:56:09;;;;;;;24.63;18.95;;;;;;;12.32;36.41;102886.19;5051867;28;20049;-53
2022/03/24 09:58:37;;;;;;;25.45;19.73;;;;;;;12.53;35.05;102882.09;5055960;28;20045;-49
2022/03/24 10:01:05;;;;;;;22.95;17.55;;;;;;;12.73;32.57;102882.69;5038009;28;20048;-51
2022/03/24 10:03:33;;;;;;;24.85;18.20;;;;;;;12.87;30.94;102885.22;5056037;28;20045;-52
2022/03/24 10:06:09;;;;;;;20.02;16.13;;;;;;;12.89;31.09;102880.34;5055800;28;20435;-56
2022/03/24 10:08:37;;;;;;;25.55;17.35;;;;;;;12.78;31.44;102891.03;5053044;28;20041;-54
2022/03/24 10:11:09;;;;;;;24.40;17.55;;;;;;;12.75;30.62;102880.56;5046870;28;20124;-53
2022/03/24 10:13:53;;;;;;;23.55;17.25;;;;;;;12.72;30.39;102881.03;5034800;28;20468;-51
2022/03/24 10:16:41;;;;;;;25.00;17.75;;;;;;;12.97;31.04;102888.25;5035887;28;20045;-51
2022/03/24 10:19:14;;;;;;;29.05;18.13;;;;;;;13.07;31.94;102876.72;5036508;28;20054;-52
2022/03/24 10:21:44;;;;;;;26.40;17.88;;;;;;;13.18;30.00;102881.38;5036773;28;20480;-52
2022/03/24 10:24:22;;;;;;;22.08;17.00;;;;;;;13.23;29.77;102873.31;5036567;28;20059;-53
2022/03/24 10:27:00;;;;;;;24.33;17.92;;;;;;;13.27;29.66;102866.31;5046421;28;20032;-49
2022/03/24 10:29:30;;;;;;;22.85;18.02;;;;;;;13.26;30.82;102863.81;5055495;28;20055;-50
2022/03/24 10:31:59;;;;;;;26.88;17.52;;;;;;;13.42;28.85;102871.31;5055050;28;20063;-51
2022/03/24 10:34:38;;;;;;;26.48;17.48;;;;;;;13.39;30.43;102866.34;5054612;28;20076;-49
2022/03/24 10:37:09;;;;;;;25.90;18.67;;;;;;;13.55;30.48;102876.59;5035330;28;20155;-50
2022/03/24 10:39:38;;;;;;;25.55;18.30;;;;;;;13.70;29.39;102869.81;5035517;28;20052;-53
2022/03/24 10:42:14;;;;;;;25.95;17.73;;;;;;;13.60;29.63;102860.28;5045536;28;20049;-50
2022/03/24 10:45:01;;;;;;;;;;;;;;;13.54;29.40;102860.38;5046104;28;20232;-52
2022/03/24 10:47:52;;;;;;;24.08;17.17;;;;;;;13.66;29.20;102868.59;5035262;28;19925;-52
2022/03/24 10:50:42;;;;;;;21.33;16.95;;;;;;;13.78;28.99;102872.16;5034873;28;20033;-50
2022/03/24 10:53:12;;;;;;;22.00;16.17;;;;;;;13.79;28.76;102863.72;5050169;28;20112;-49
2022/03/24 10:56:04;;;;;;;24.25;15.90;;;;;;;13.84;28.98;102860.25;5039235;28;20099;-50
2022/03/24 10:58:39;;;;;;;22.17;16.10;;;;;;;13.90;28.72;102862.03;5042704;28;20041;-49
2022/03/24 11:01:09;;;;;;;23.38;16.65;;;;;;;13.96;28.32;102860.25;5052107;28;20037;-52
2022/03/24 11:03:38;;;;;;;27.52;15.80;;;;;;;13.92;28.75;102854.41;5048703;28;20071;-51
2022/03/24 11:06:08;;;;;;;23.58;15.60;;;;;;;13.96;28.63;102863.81;5052434;28;20107;-49
2022/03/24 11:08:37;;;;;;;24.83;17.70;;;;;;;14.11;28.73;102859.75;5054913;28;20079;-52
2022/03/24 11:11:17;;;;;;;23.92;17.95;;;;;;;14.03;29.43;102859.03;5054787;28;20047;-52
2022/03/24 11:14:04;;;;;;;28.88;18.45;;;;;;;14.07;29.83;102856.66;5041807;28;20496;-53
2022/03/24 11:16:34;;;;;;;28.15;18.23;;;;;;;14.06;29.89;102858.53;5042347;28;20037;-52
2022/03/24 11:19:13;;;;;;;27.83;19.33;;;;;;;13.94;30.67;102855.00;5049944;28;20513;-53
2022/03/24 11:21:43;;;;;;;26.10;20.02;;;;;;;14.01;30.65;102852.97;5041373;28;20044;-52
2022/03/24 11:24:10;;;;;;;31.63;21.38;;;;;;;14.06;30.59;102850.31;5042976;28;20411;-54